createdAt,value
2023-05-11T00:00:35.226Z,7.43
2023-05-11T00:02:27.862Z,7.43
2023-05-11T00:03:01.771Z,9.40
2023-05-11T00:05:28.501Z,7.10
2023-05-11T00:07:27.745Z,7.10
2023-05-11T00:07:54.880Z,8.40
2023-05-11T00:10:21.418Z,7.95
2023-05-11T00:12:27.712Z,7.95
2023-05-11T00:12:47.808Z,8.65
2023-05-11T00:15:14.156Z,8.02
2023-05-11T00:17:27.749Z,8.02
2023-05-11T00:17:40.608Z,9.82
2023-05-11T00:20:07.683Z,8.80
2023-05-11T00:22:27.739Z,8.80
2023-05-11T00:22:34.061Z,8.13
2023-05-11T00:25:00.395Z,8.40
2023-05-11T00:27:26.821Z,7.82
2023-05-11T00:27:27.721Z,7.82
2023-05-11T00:29:53.241Z,8.00
2023-05-11T00:32:19.716Z,7.80
2023-05-11T00:32:27.759Z,7.80
2023-05-11T00:34:46.217Z,8.85
2023-05-11T00:37:12.600Z,7.72
2023-05-11T00:37:27.723Z,7.72
2023-05-11T00:39:40.676Z,8.05
2023-05-11T00:42:07.467Z,8.52
2023-05-11T00:42:27.714Z,8.52
2023-05-11T00:44:34.027Z,8.18
2023-05-11T00:47:00.934Z,8.80
2023-05-11T00:47:27.811Z,8.80
2023-05-11T00:49:29.851Z,8.73
2023-05-11T00:51:57.732Z,8.82
2023-05-11T00:52:27.710Z,8.82
2023-05-11T00:54:24.691Z,8.63
2023-05-11T00:56:51.768Z,7.93
2023-05-11T00:57:27.720Z,7.93
2023-05-11T00:59:18.567Z,9.05
2023-05-11T01:01:45.076Z,8.88
2023-05-11T01:02:27.745Z,8.88
2023-05-11T01:04:11.451Z,8.73
2023-05-11T01:07:00.323Z,7.55
2023-05-11T01:07:27.732Z,7.55
2023-05-11T01:09:29.745Z,6.13
2023-05-11T01:12:16.247Z,7.55
2023-05-11T01:12:27.711Z,7.55
2023-05-11T01:14:52.972Z,6.03
2023-05-11T01:17:27.371Z,6.57
2023-05-11T01:17:27.738Z,6.57
2023-05-11T01:20:08.187Z,7.00
2023-05-11T01:22:27.733Z,7.00
2023-05-11T01:23:05.719Z,7.05
2023-05-11T01:25:55.434Z,6.68
2023-05-11T01:27:27.742Z,6.68
2023-05-11T01:29:01.996Z,7.22
2023-05-11T01:31:31.373Z,7.75
2023-05-11T01:32:27.868Z,7.75
2023-05-11T01:34:02.709Z,8.10
2023-05-11T01:36:34.141Z,7.05
2023-05-11T01:37:27.732Z,7.05
2023-05-11T01:39:08.689Z,8.75
2023-05-11T01:41:38.320Z,8.57
2023-05-11T01:42:27.755Z,8.57
2023-05-11T01:44:07.874Z,8.77
2023-05-11T01:46:35.006Z,8.23
2023-05-11T01:47:27.726Z,8.23
2023-05-11T01:49:07.398Z,7.70
2023-05-11T01:51:37.439Z,6.97
2023-05-11T01:52:27.727Z,6.97
2023-05-11T01:54:07.280Z,8.13
2023-05-11T01:56:36.314Z,7.97
2023-05-11T01:57:27.734Z,7.97
2023-05-11T01:59:03.722Z,8.05
2023-05-11T02:01:32.161Z,8.55
2023-05-11T02:02:27.861Z,8.55
2023-05-11T02:04:02.088Z,8.43
2023-05-11T02:06:30.970Z,9.60
2023-05-11T02:07:27.746Z,9.60
2023-05-11T02:09:00.142Z,8.77
2023-05-11T02:11:27.932Z,7.32
2023-05-11T02:12:27.738Z,7.32
2023-05-11T02:13:56.890Z,9.10
2023-05-11T02:16:24.798Z,8.45
2023-05-11T02:17:27.772Z,8.45
2023-05-11T02:18:52.955Z,8.05
2023-05-11T02:21:20.654Z,8.95
2023-05-11T02:22:27.770Z,8.95
2023-05-11T02:23:49.670Z,8.18
2023-05-11T02:26:16.745Z,8.65
2023-05-11T02:27:27.747Z,8.65
2023-05-11T02:28:43.861Z,7.95
2023-05-11T02:31:16.925Z,9.80
2023-05-11T02:32:27.762Z,9.80
2023-05-11T02:33:47.246Z,8.27
2023-05-11T02:36:17.651Z,8.15
2023-05-11T02:37:27.731Z,8.15
2023-05-11T02:38:46.426Z,8.55
2023-05-11T02:41:17.462Z,7.28
2023-05-11T02:42:27.791Z,7.28
2023-05-11T02:43:51.102Z,8.68
2023-05-11T02:46:22.766Z,8.15
2023-05-11T02:47:27.761Z,8.15
2023-05-11T02:48:55.128Z,7.95
2023-05-11T02:51:26.405Z,8.32
2023-05-11T02:52:27.773Z,8.32
2023-05-11T02:53:56.231Z,8.32
2023-05-11T02:56:24.202Z,7.80
2023-05-11T02:57:27.832Z,7.80
2023-05-11T02:58:51.009Z,7.45
2023-05-11T03:01:18.111Z,7.53
2023-05-11T03:02:27.982Z,7.53
2023-05-11T03:03:46.902Z,8.73
2023-05-11T03:06:13.602Z,8.43
2023-05-11T03:07:27.739Z,8.43
2023-05-11T03:08:41.406Z,7.60
2023-05-11T03:11:09.560Z,8.02
2023-05-11T03:12:27.753Z,8.02
2023-05-11T03:13:36.318Z,7.90
2023-05-11T03:16:03.909Z,8.02
2023-05-11T03:17:27.918Z,8.02
2023-05-11T03:18:31.090Z,7.75
2023-05-11T03:20:59.298Z,9.85
2023-05-11T03:22:27.762Z,9.85
2023-05-11T03:23:26.682Z,8.70
2023-05-11T03:25:53.575Z,8.43
2023-05-11T03:27:27.849Z,8.43
2023-05-11T03:28:22.539Z,8.35
2023-05-11T03:30:50.958Z,7.55
2023-05-11T03:32:27.953Z,7.55
2023-05-11T03:33:17.543Z,7.50
2023-05-11T03:35:46.443Z,7.70
2023-05-11T03:37:27.826Z,7.70
2023-05-11T03:38:14.956Z,8.27
2023-05-11T03:40:42.435Z,6.15
2023-05-11T03:42:27.876Z,6.15
2023-05-11T03:43:16.381Z,8.02
2023-05-11T03:45:44.176Z,6.55
2023-05-11T03:47:27.978Z,6.55
2023-05-11T03:48:11.972Z,7.15
2023-05-11T03:50:39.336Z,7.97
2023-05-11T03:52:27.777Z,7.97
2023-05-11T03:53:06.302Z,8.05
2023-05-11T03:55:33.115Z,7.20
2023-05-11T03:57:27.744Z,7.20
2023-05-11T03:57:59.589Z,8.63
2023-05-11T04:00:25.959Z,7.25
2023-05-11T04:02:27.814Z,7.25
2023-05-11T04:02:52.804Z,9.18
2023-05-11T04:05:19.353Z,7.55
2023-05-11T04:07:27.747Z,7.55
2023-05-11T04:07:46.296Z,7.30
2023-05-11T04:10:12.740Z,7.15
2023-05-11T04:12:27.776Z,7.15
2023-05-11T04:12:39.213Z,7.82
2023-05-11T04:15:06.686Z,6.88
2023-05-11T04:17:27.815Z,6.88
2023-05-11T04:17:33.404Z,7.13
2023-05-11T04:19:59.794Z,8.27
2023-05-11T04:22:26.281Z,8.52
2023-05-11T04:22:27.780Z,8.52
2023-05-11T04:24:52.653Z,8.13
2023-05-11T04:27:19.004Z,7.82
2023-05-11T04:27:27.772Z,7.82
2023-05-11T04:29:45.478Z,8.88
2023-05-11T04:32:11.944Z,7.85
2023-05-11T04:32:27.907Z,7.85
2023-05-11T04:34:38.503Z,8.43
2023-05-11T04:37:07.284Z,9.15
2023-05-11T04:37:27.756Z,9.15
2023-05-11T04:39:34.573Z,8.40
2023-05-11T04:42:01.829Z,8.32
2023-05-11T04:42:27.796Z,8.32
2023-05-11T04:44:28.272Z,7.93
2023-05-11T04:46:55.904Z,8.07
2023-05-11T04:47:27.911Z,8.07
2023-05-11T04:49:22.637Z,7.53
2023-05-11T04:51:49.047Z,8.40
2023-05-11T04:52:27.750Z,8.40
2023-05-11T04:54:15.533Z,7.80
2023-05-11T04:56:41.970Z,7.85
2023-05-11T04:57:27.753Z,7.85
2023-05-11T04:59:08.352Z,6.97
2023-05-11T05:01:34.992Z,8.50
2023-05-11T05:02:27.824Z,8.50
2023-05-11T05:04:01.646Z,8.30
2023-05-11T05:06:30.204Z,9.27
2023-05-11T05:07:27.766Z,9.27
2023-05-11T05:08:56.583Z,7.53
2023-05-11T05:11:24.120Z,6.78
2023-05-11T05:12:27.754Z,6.78
2023-05-11T05:13:50.474Z,8.02
2023-05-11T05:16:16.912Z,8.40
2023-05-11T05:17:27.848Z,8.40
2023-05-11T05:18:43.298Z,9.07
2023-05-11T05:21:09.716Z,7.95
2023-05-11T05:22:27.768Z,7.95
2023-05-11T05:23:36.117Z,8.20
2023-05-11T05:26:02.455Z,8.20
2023-05-11T05:27:27.770Z,8.20
2023-05-11T05:28:28.863Z,8.73
2023-05-11T05:30:57.979Z,7.05
2023-05-11T05:32:27.816Z,7.05
2023-05-11T05:33:24.482Z,8.55
2023-05-11T05:35:51.030Z,8.43
2023-05-11T05:37:27.804Z,8.43
2023-05-11T05:38:17.456Z,9.75
2023-05-11T05:40:43.792Z,8.20
2023-05-11T05:42:27.800Z,8.20
2023-05-11T05:43:10.082Z,8.52
2023-05-11T05:45:36.421Z,8.23
2023-05-11T05:47:27.824Z,8.23
2023-05-11T05:48:02.930Z,8.07
2023-05-11T05:50:29.429Z,9.05
2023-05-11T05:52:27.799Z,9.05
2023-05-11T05:52:55.864Z,7.78
2023-05-11T05:55:22.367Z,7.30
2023-05-11T05:57:27.779Z,7.30
2023-05-11T05:57:48.693Z,8.35
2023-05-11T06:00:15.668Z,8.68
2023-05-11T06:02:27.978Z,8.68
2023-05-11T06:02:42.212Z,7.85
2023-05-11T06:05:09.140Z,8.70
2023-05-11T06:07:27.757Z,8.70
2023-05-11T06:07:35.574Z,8.90
2023-05-11T06:10:02.517Z,7.78
2023-05-11T06:12:37.168Z,7.10
2023-05-11T06:15:03.752Z,7.82
2023-05-11T06:17:27.797Z,7.82
2023-05-11T06:17:30.181Z,8.93
2023-05-11T06:19:56.602Z,7.95
2023-05-11T06:22:23.103Z,8.45
2023-05-11T06:22:27.779Z,8.45
2023-05-11T06:24:49.656Z,8.85
2023-05-11T06:27:18.125Z,8.43
2023-05-11T06:27:27.775Z,8.43
2023-05-11T06:29:44.866Z,8.60
2023-05-11T06:32:11.329Z,8.52
2023-05-11T06:32:27.866Z,8.52
2023-05-11T06:34:39.239Z,8.70
2023-05-11T06:37:05.654Z,8.55
2023-05-11T06:37:27.760Z,8.55
2023-05-11T06:39:35.291Z,8.52
2023-05-11T06:42:04.330Z,8.98
2023-05-11T06:42:27.760Z,8.98
2023-05-11T06:44:32.949Z,8.70
2023-05-11T06:47:00.997Z,10.15
2023-05-11T06:47:27.789Z,10.15
2023-05-11T06:49:27.424Z,9.80
2023-05-11T06:51:53.764Z,9.10
2023-05-11T06:52:27.761Z,9.10
2023-05-11T06:54:20.102Z,10.07
2023-05-11T06:56:46.456Z,10.10
2023-05-11T06:57:27.782Z,10.10
2023-05-11T06:59:12.937Z,10.45
2023-05-11T07:01:39.508Z,9.80
2023-05-11T07:02:27.814Z,9.80
2023-05-11T07:04:06.308Z,10.40
2023-05-11T07:06:33.536Z,9.98
2023-05-11T07:07:27.821Z,9.98
2023-05-11T07:08:59.972Z,8.95
2023-05-11T07:11:27.660Z,9.90
2023-05-11T07:12:27.791Z,9.90
2023-05-11T07:13:54.111Z,10.18
2023-05-11T07:16:20.531Z,9.80
2023-05-11T07:17:27.807Z,9.80
2023-05-11T07:18:46.948Z,9.88
2023-05-11T07:21:13.466Z,10.55
2023-05-11T07:22:27.794Z,10.55
2023-05-11T07:23:39.790Z,10.02
2023-05-11T07:26:09.139Z,8.60
2023-05-11T07:27:27.788Z,8.60
2023-05-11T07:28:38.884Z,9.57
2023-05-11T07:31:05.870Z,9.40
2023-05-11T07:32:27.857Z,9.40
2023-05-11T07:33:34.566Z,10.23
2023-05-11T07:36:00.967Z,9.50
2023-05-11T07:37:27.864Z,9.50
2023-05-11T07:38:29.747Z,8.82
2023-05-11T07:40:56.308Z,9.05
2023-05-11T07:42:27.799Z,9.05
2023-05-11T07:43:22.906Z,9.38
2023-05-11T07:45:49.325Z,9.48
2023-05-11T07:47:27.793Z,9.48
2023-05-11T07:48:16.417Z,9.55
2023-05-11T07:50:42.816Z,9.45
2023-05-11T07:52:27.759Z,9.45
2023-05-11T07:53:09.393Z,8.18
2023-05-11T07:55:35.869Z,9.63
2023-05-11T07:57:27.768Z,9.63
2023-05-11T07:58:02.535Z,8.52
2023-05-11T08:00:28.963Z,8.80
2023-05-11T08:02:27.929Z,8.80
2023-05-11T08:02:55.558Z,8.65
2023-05-11T08:05:22.211Z,9.23
2023-05-11T08:07:27.800Z,9.23
2023-05-11T08:07:48.745Z,8.65
2023-05-11T08:10:15.267Z,8.98
2023-05-11T08:12:27.774Z,8.98
2023-05-11T08:12:41.889Z,8.32
2023-05-11T08:15:08.893Z,8.50
2023-05-11T08:17:27.844Z,8.50
2023-05-11T08:17:36.382Z,8.02
2023-05-11T08:20:06.789Z,7.95
2023-05-11T08:22:27.819Z,7.95
2023-05-11T08:22:33.328Z,7.70
2023-05-11T08:24:59.700Z,9.45
2023-05-11T08:27:26.354Z,17.83
2023-05-11T08:27:27.856Z,17.83
2023-05-11T08:29:52.731Z,8.65
2023-05-11T08:32:19.160Z,8.32
2023-05-11T08:32:27.906Z,8.32
2023-05-11T08:34:45.894Z,7.50
2023-05-11T08:37:12.345Z,8.98
2023-05-11T08:37:27.894Z,8.98
2023-05-11T08:39:47.189Z,9.02
2023-05-11T08:42:16.263Z,9.18
2023-05-11T08:42:27.793Z,9.18
2023-05-11T08:44:43.856Z,8.95
2023-05-11T08:47:27.855Z,7.38
2023-05-11T08:49:40.856Z,7.97
2023-05-11T08:52:08.059Z,8.68
2023-05-11T08:52:27.817Z,8.68
2023-05-11T08:54:34.572Z,8.80
2023-05-11T08:57:02.528Z,8.32
2023-05-11T08:57:27.811Z,8.32
2023-05-11T08:59:29.370Z,9.48
2023-05-11T09:01:56.881Z,8.60
2023-05-11T09:02:27.832Z,8.60
2023-05-11T09:04:24.447Z,9.18
2023-05-11T09:06:51.211Z,8.13
2023-05-11T09:07:27.786Z,8.13
2023-05-11T09:09:18.222Z,8.18
2023-05-11T09:11:45.703Z,7.90
2023-05-11T09:12:27.809Z,7.90
2023-05-11T09:14:13.254Z,7.95
2023-05-11T09:16:39.988Z,8.93
2023-05-11T09:17:27.827Z,8.93
2023-05-11T09:19:06.602Z,8.57
2023-05-11T09:21:33.194Z,8.63
2023-05-11T09:22:30.283Z,8.63
2023-05-11T09:24:00.589Z,8.27
2023-05-11T09:26:29.228Z,8.25
2023-05-11T09:27:27.794Z,8.25
2023-05-11T09:29:03.249Z,8.65
2023-05-11T09:31:38.169Z,9.40
2023-05-11T09:32:27.822Z,9.40
2023-05-11T09:34:23.108Z,8.88
2023-05-11T09:36:57.020Z,8.60
2023-05-11T09:37:27.819Z,8.60
2023-05-11T09:39:42.050Z,9.38
2023-05-11T09:42:18.727Z,8.93
2023-05-11T09:42:27.810Z,8.93
2023-05-11T09:44:46.137Z,8.32
2023-05-11T09:47:17.443Z,8.80
2023-05-11T09:47:27.957Z,8.80
2023-05-11T09:49:45.522Z,8.38
2023-05-11T09:52:17.470Z,8.48
2023-05-11T09:52:27.784Z,8.48
2023-05-11T09:54:46.852Z,9.40
2023-05-11T09:57:31.805Z,9.23
2023-05-11T09:57:31.989Z,9.23
2023-05-11T09:59:59.910Z,9.10
2023-05-11T10:02:28.054Z,9.50
2023-05-11T10:02:28.342Z,9.50
2023-05-11T10:04:56.594Z,8.57
2023-05-11T10:07:23.986Z,9.52
2023-05-11T10:07:27.819Z,9.52
2023-05-11T10:09:53.178Z,10.32
2023-05-11T10:12:22.203Z,9.95
2023-05-11T10:12:27.810Z,9.95
2023-05-11T10:14:51.842Z,9.50
2023-05-11T10:17:19.188Z,10.93
2023-05-11T10:17:27.828Z,10.93
2023-05-11T10:19:47.344Z,9.57
2023-05-11T10:22:13.955Z,12.10
2023-05-11T10:22:27.923Z,12.10
2023-05-11T10:24:41.016Z,10.55
2023-05-11T10:27:07.930Z,11.50
2023-05-11T10:27:27.829Z,11.50
2023-05-11T10:29:34.508Z,10.20
2023-05-11T10:32:02.516Z,9.90
2023-05-11T10:32:27.949Z,9.90
2023-05-11T10:34:29.332Z,9.98
2023-05-11T11:30:39.153Z,8.48
2023-05-11T11:32:27.912Z,8.48
2023-05-11T11:33:08.546Z,8.55
2023-05-11T11:35:47.322Z,8.40
2023-05-11T11:37:27.844Z,8.40
2023-05-11T11:38:16.440Z,8.60
2023-05-11T11:40:51.057Z,9.18
2023-05-11T11:42:27.886Z,9.18
2023-05-11T11:43:22.418Z,9.32
2023-05-11T11:45:59.687Z,8.85
2023-05-11T11:47:27.864Z,8.85
2023-05-11T11:48:37.557Z,8.70
2023-05-11T11:51:09.104Z,8.90
2023-05-11T11:52:27.861Z,8.90
2023-05-11T11:53:41.449Z,8.52
2023-05-11T11:56:13.886Z,9.40
2023-05-11T11:57:27.847Z,9.40
2023-05-11T11:58:40.220Z,8.43
2023-05-11T12:01:14.199Z,8.68
2023-05-11T12:02:27.948Z,8.68
2023-05-11T12:03:42.129Z,8.55
2023-05-11T12:06:10.490Z,8.93
2023-05-11T12:07:27.836Z,8.93
2023-05-11T12:08:38.151Z,9.10
2023-05-11T12:11:05.885Z,9.55
2023-05-11T12:12:27.865Z,9.55
2023-05-11T12:13:33.573Z,9.05
2023-05-11T12:16:18.890Z,8.35
2023-05-11T12:17:27.873Z,8.35
2023-05-11T12:18:53.969Z,8.77
2023-05-11T12:21:21.618Z,9.25
2023-05-11T12:22:27.829Z,9.25
2023-05-11T12:24:02.081Z,9.13
2023-05-11T12:26:29.869Z,8.63
2023-05-11T12:27:27.833Z,8.63
2023-05-11T12:29:14.149Z,8.30
2023-05-11T12:31:45.766Z,8.00
2023-05-11T12:32:27.928Z,8.00
2023-05-11T12:34:21.943Z,7.88
2023-05-11T12:36:53.437Z,8.20
2023-05-11T12:37:27.846Z,8.20
2023-05-11T12:39:20.866Z,8.75
2023-05-11T12:41:49.460Z,8.32
2023-05-11T12:42:27.883Z,8.32
2023-05-11T12:44:17.288Z,8.80
2023-05-11T12:46:46.075Z,8.13
2023-05-11T12:47:27.872Z,8.13
2023-05-11T12:49:15.424Z,8.75
2023-05-11T12:51:50.484Z,8.02
2023-05-11T12:52:27.848Z,8.02
2023-05-11T12:54:52.267Z,7.90
2023-05-11T12:57:33.891Z,8.65
2023-05-11T12:57:34.026Z,8.65
2023-05-11T13:00:07.998Z,7.80
2023-05-11T13:02:27.976Z,7.80
2023-05-11T13:02:34.907Z,8.15
2023-05-11T13:05:11.891Z,8.18
2023-05-11T13:07:27.842Z,8.18
2023-05-11T13:07:39.075Z,8.00
2023-05-11T13:10:06.073Z,8.40
2023-05-11T13:12:29.582Z,8.40
2023-05-11T13:12:34.206Z,8.52
2023-05-11T13:15:11.305Z,8.23
2023-05-11T13:17:27.977Z,8.23
2023-05-11T13:17:39.238Z,8.05
2023-05-11T13:20:30.117Z,7.65
2023-05-11T13:22:27.871Z,7.65
2023-05-11T13:23:04.227Z,8.20
2023-05-11T13:25:32.319Z,7.35
2023-05-11T13:27:27.838Z,7.35
2023-05-11T13:27:58.910Z,8.00
2023-05-11T13:30:25.316Z,8.20
2023-05-11T13:32:28.005Z,8.20
2023-05-11T13:32:51.738Z,8.02
2023-05-11T13:35:18.297Z,7.85
2023-05-11T13:37:27.930Z,7.85
2023-05-11T13:37:46.448Z,7.97
2023-05-11T13:40:13.346Z,8.05
2023-05-11T13:42:27.862Z,8.05
2023-05-11T13:42:41.556Z,7.60
2023-05-11T13:45:08.334Z,7.50
2023-05-11T13:47:27.944Z,7.50
2023-05-11T13:47:37.126Z,7.57
2023-05-11T13:50:04.688Z,7.97
2023-05-11T13:52:27.873Z,7.97
2023-05-11T13:52:31.221Z,8.85
2023-05-11T13:54:57.584Z,8.38
2023-05-11T13:57:24.094Z,9.57
2023-05-11T13:57:27.897Z,9.57
2023-05-11T13:59:50.862Z,8.90
2023-05-11T14:02:17.278Z,8.30
2023-05-11T14:02:28.025Z,8.30
2023-05-11T14:04:43.761Z,7.43
2023-05-11T14:07:10.176Z,8.63
2023-05-11T14:07:42.809Z,8.63
2023-05-11T14:09:37.125Z,8.65
2023-05-11T14:12:03.832Z,8.65
2023-05-11T14:12:27.831Z,8.65
2023-05-11T14:14:30.210Z,8.18
2023-05-11T14:16:56.993Z,8.45
2023-05-11T14:17:27.892Z,8.45
2023-05-11T14:19:23.400Z,8.88
2023-05-11T14:21:49.836Z,8.13
2023-05-11T14:22:27.861Z,8.13
2023-05-11T14:24:16.250Z,8.70
2023-05-11T14:26:42.619Z,8.27
2023-05-11T14:27:27.880Z,8.27
2023-05-11T14:29:09.036Z,8.50
2023-05-11T14:31:36.191Z,8.43
2023-05-11T14:32:27.998Z,8.43
2023-05-11T14:34:03.907Z,8.10
2023-05-11T14:36:31.666Z,9.20
2023-05-11T14:37:27.860Z,9.20
2023-05-11T14:38:58.237Z,9.18
2023-05-11T14:41:25.579Z,8.48
2023-05-11T14:42:27.927Z,8.48
2023-05-11T14:43:52.201Z,8.40
2023-05-11T14:46:18.712Z,8.32
2023-05-11T14:47:27.893Z,8.32
2023-05-11T14:48:45.046Z,8.07
2023-05-11T14:51:11.399Z,8.43
2023-05-11T14:52:27.889Z,8.43
2023-05-11T14:53:37.740Z,8.48
2023-05-11T14:56:04.326Z,8.50
2023-05-11T14:57:27.878Z,8.50
2023-05-11T14:58:30.754Z,8.13
2023-05-11T15:00:57.406Z,8.82
2023-05-11T15:02:27.924Z,8.82
2023-05-11T15:03:24.887Z,8.70
2023-05-11T15:05:51.839Z,9.02
2023-05-11T15:07:27.933Z,9.02
2023-05-11T15:08:29.033Z,8.45
2023-05-11T15:10:57.120Z,8.95
2023-05-11T15:12:27.873Z,8.95
2023-05-11T15:13:23.992Z,9.38
2023-05-11T15:15:51.534Z,9.15
2023-05-11T15:17:27.895Z,9.15
2023-05-11T15:18:18.151Z,9.35
2023-05-11T15:20:44.777Z,8.18
2023-05-11T15:22:27.890Z,8.18
2023-05-11T15:23:11.788Z,9.63
2023-05-11T15:25:38.371Z,10.43
2023-05-11T15:27:27.896Z,10.43
2023-05-11T15:28:06.060Z,9.13
2023-05-11T15:30:32.852Z,11.13
2023-05-11T15:32:27.901Z,11.13
2023-05-11T15:32:59.555Z,9.35
2023-05-11T15:35:25.978Z,10.65
2023-05-11T15:37:27.886Z,10.65
2023-05-11T15:37:52.397Z,11.70
2023-05-11T15:40:18.789Z,11.50
2023-05-11T15:42:27.940Z,11.50
2023-05-11T15:42:45.133Z,10.60
2023-05-11T15:45:11.780Z,10.25
2023-05-11T15:47:27.968Z,10.25
2023-05-11T15:47:38.255Z,10.30
2023-05-11T15:50:06.108Z,10.43
2023-05-11T15:52:27.868Z,10.43
2023-05-11T15:52:32.490Z,10.65
2023-05-11T15:54:58.899Z,13.20
2023-05-11T15:57:25.458Z,13.77
2023-05-11T15:57:27.886Z,13.77
2023-05-11T15:59:51.826Z,13.18
2023-05-11T16:02:18.289Z,13.88
2023-05-11T16:02:27.932Z,13.88
2023-05-11T16:04:44.660Z,12.65
2023-05-11T16:07:13.568Z,10.93
2023-05-11T16:07:27.900Z,10.93
2023-05-11T16:09:39.876Z,9.63
2023-05-11T16:12:06.712Z,10.45
2023-05-11T16:12:27.878Z,10.45
2023-05-11T16:14:33.214Z,11.60
2023-05-11T16:17:02.485Z,12.10
2023-05-11T16:17:27.920Z,12.10
2023-05-11T16:19:29.973Z,11.70
2023-05-11T16:21:56.448Z,12.70
2023-05-11T16:22:27.901Z,12.70
2023-05-11T16:24:22.803Z,12.45
2023-05-11T16:26:50.003Z,12.32
2023-05-11T16:27:27.885Z,12.32
2023-05-11T16:29:16.474Z,13.98
2023-05-11T16:31:42.957Z,12.18
2023-05-11T16:32:28.045Z,12.18
2023-05-11T16:34:09.331Z,12.07
2023-05-11T16:36:35.691Z,11.45
2023-05-11T16:37:27.889Z,11.45
2023-05-11T16:39:02.029Z,12.65
2023-05-11T16:41:28.725Z,12.13
2023-05-11T16:42:27.993Z,12.13
2023-05-11T16:43:55.711Z,13.90
2023-05-11T16:46:22.558Z,13.10
2023-05-11T16:47:27.931Z,13.10
2023-05-11T16:48:49.004Z,11.02
2023-05-11T16:51:15.613Z,12.43
2023-05-11T16:52:27.900Z,12.43
2023-05-11T16:53:42.072Z,12.35
2023-05-11T16:56:08.636Z,12.70
2023-05-11T16:57:27.897Z,12.70
2023-05-11T16:58:35.319Z,11.85
2023-05-11T17:01:01.766Z,10.43
2023-05-11T17:02:27.936Z,10.43
2023-05-11T17:03:28.452Z,9.60
2023-05-11T17:05:55.894Z,8.20
2023-05-11T17:07:27.909Z,8.20
2023-05-11T17:08:22.245Z,7.88
2023-05-11T17:10:48.658Z,7.82
2023-05-11T17:12:27.915Z,7.82
2023-05-11T17:13:15.109Z,6.78
2023-05-11T17:15:41.852Z,6.90
2023-05-11T17:17:27.954Z,6.90
2023-05-11T17:18:08.485Z,8.48
2023-05-11T17:20:35.055Z,8.27
2023-05-11T17:22:27.957Z,8.27
2023-05-11T17:23:01.455Z,9.07
2023-05-11T17:25:29.394Z,9.70
2023-05-11T17:27:27.929Z,9.70
2023-05-11T17:27:55.789Z,9.48
2023-05-11T17:30:25.463Z,9.32
2023-05-11T17:32:28.349Z,9.32
2023-05-11T17:32:56.732Z,9.60
2023-05-11T17:35:23.217Z,10.02
2023-05-11T17:37:31.834Z,10.02
2023-05-11T17:37:49.581Z,8.60
2023-05-11T17:40:16.359Z,10.35
2023-05-11T17:42:27.991Z,10.35
2023-05-11T17:42:43.292Z,8.43
2023-05-11T17:45:10.264Z,9.10
2023-05-11T17:47:27.941Z,9.10
2023-05-11T17:47:36.720Z,9.18
2023-05-11T17:50:03.136Z,10.40
2023-05-11T17:52:27.894Z,10.40
2023-05-11T17:52:29.735Z,9.23
2023-05-11T17:54:56.524Z,9.57
2023-05-11T17:57:25.240Z,9.70
2023-05-11T17:57:27.913Z,9.70
2023-05-11T17:59:51.703Z,9.27
2023-05-11T18:02:18.925Z,9.80
2023-05-11T18:02:27.998Z,9.80
2023-05-11T18:04:46.330Z,8.32
2023-05-11T18:07:12.746Z,9.75
2023-05-11T18:07:27.914Z,9.75
2023-05-11T18:09:39.651Z,9.40
2023-05-11T18:12:07.780Z,9.40
2023-05-11T18:12:27.925Z,9.40
2023-05-11T18:14:34.190Z,10.15
2023-05-11T18:17:00.641Z,9.18
2023-05-11T18:17:28.007Z,9.18
2023-05-11T18:19:28.585Z,9.30
2023-05-11T18:21:55.049Z,8.68
2023-05-11T18:22:27.916Z,8.68
2023-05-11T18:24:21.611Z,8.48
2023-05-11T18:26:48.013Z,8.95
2023-05-11T18:27:27.904Z,8.95
2023-05-11T18:29:19.127Z,8.25
2023-05-11T18:31:46.378Z,8.70
2023-05-11T18:32:27.962Z,8.70
2023-05-11T18:34:12.802Z,9.55
2023-05-11T18:36:39.140Z,8.95
2023-05-11T18:37:27.987Z,8.95
2023-05-11T18:39:05.475Z,9.00
2023-05-11T18:41:31.860Z,9.80
2023-05-11T18:42:27.905Z,9.80
2023-05-11T18:43:58.201Z,9.45
2023-05-11T18:46:24.559Z,8.80
2023-05-11T18:47:27.943Z,8.80
2023-05-11T18:48:52.740Z,9.10
2023-05-11T18:51:22.738Z,8.93
2023-05-11T18:52:27.936Z,8.93
2023-05-11T18:53:50.105Z,8.38
2023-05-11T18:56:17.303Z,8.88
2023-05-11T18:57:27.923Z,8.88
2023-05-11T18:58:46.703Z,9.73
2023-05-11T19:01:13.289Z,9.18
2023-05-11T19:02:28.049Z,9.18
2023-05-11T19:03:41.944Z,9.82
2023-05-11T19:06:08.987Z,9.15
2023-05-11T19:07:27.952Z,9.15
2023-05-11T19:08:35.370Z,8.48
2023-05-11T19:11:09.414Z,8.10
2023-05-11T19:12:27.918Z,8.10
2023-05-11T19:13:36.608Z,8.32
2023-05-11T19:16:04.196Z,8.50
2023-05-11T19:17:28.016Z,8.50
2023-05-11T19:18:32.173Z,9.45
2023-05-11T19:20:58.606Z,8.57
2023-05-11T19:22:27.936Z,8.57
2023-05-11T19:23:25.032Z,7.65
2023-05-11T19:25:51.470Z,8.18
2023-05-11T19:27:27.958Z,8.18
2023-05-11T19:28:17.846Z,8.65
2023-05-11T19:30:44.182Z,9.68
2023-05-11T19:32:28.039Z,9.68
2023-05-11T19:33:11.794Z,9.13
2023-05-11T19:35:38.320Z,9.27
2023-05-11T19:37:27.981Z,9.27
2023-05-11T19:38:06.209Z,8.93
2023-05-11T19:40:45.538Z,9.68
2023-05-11T19:42:36.021Z,9.68
2023-05-11T19:43:13.329Z,9.52
2023-05-11T19:45:42.269Z,9.43
2023-05-11T19:47:27.962Z,9.43
2023-05-11T19:48:08.994Z,9.15
2023-05-11T19:50:35.441Z,7.93
2023-05-11T19:52:27.952Z,7.93
2023-05-11T19:53:01.845Z,9.32
2023-05-11T19:55:28.282Z,9.13
2023-05-11T19:57:27.946Z,9.13
2023-05-11T19:57:54.804Z,8.25
2023-05-11T20:00:24.985Z,8.93
2023-05-11T20:02:27.996Z,8.93
2023-05-11T20:02:54.417Z,9.43
2023-05-11T20:05:20.831Z,8.57
2023-05-11T20:07:27.935Z,8.57
2023-05-11T20:07:47.301Z,7.75
2023-05-11T20:10:13.703Z,8.85
2023-05-11T20:12:27.916Z,8.85
2023-05-11T20:12:40.223Z,9.40
2023-05-11T20:15:08.430Z,8.68
2023-05-11T20:17:27.934Z,8.68
2023-05-11T20:17:35.546Z,8.77
2023-05-11T20:20:02.415Z,8.73
2023-05-11T20:22:28.851Z,8.45
2023-05-11T20:22:29.003Z,8.45
2023-05-11T20:24:55.211Z,8.95
2023-05-11T20:27:22.121Z,9.30
2023-05-11T20:27:27.928Z,9.30
2023-05-11T20:29:48.520Z,9.30
2023-05-11T20:32:18.343Z,8.65
2023-05-11T20:32:28.009Z,8.65
2023-05-11T20:34:44.749Z,8.95
2023-05-11T20:37:11.351Z,8.43
2023-05-11T20:37:27.995Z,8.43
2023-05-11T20:39:37.790Z,9.07
2023-05-11T20:42:04.685Z,9.35
2023-05-11T20:42:27.970Z,9.35
2023-05-11T20:44:31.365Z,10.02
2023-05-11T20:46:57.728Z,10.27
2023-05-11T20:47:28.004Z,10.27
2023-05-11T20:49:37.692Z,10.95
2023-05-11T20:52:05.164Z,9.73
2023-05-11T20:52:27.915Z,9.73
2023-05-11T20:54:33.639Z,9.38
2023-05-11T20:57:01.328Z,10.35
2023-05-11T20:57:27.939Z,10.35
2023-05-11T21:01:58.820Z,9.13
2023-05-11T21:02:28.056Z,9.13
2023-05-11T21:04:25.665Z,9.98
2023-05-11T21:06:55.366Z,9.32
2023-05-11T21:07:27.933Z,9.32
2023-05-11T21:09:21.953Z,10.65
2023-05-11T21:11:48.806Z,9.30
2023-05-11T21:12:27.970Z,9.30
2023-05-11T21:14:15.604Z,10.43
2023-05-11T21:16:42.169Z,9.82
2023-05-11T21:17:27.998Z,9.82
2023-05-11T21:19:08.632Z,9.13
2023-05-11T21:21:35.724Z,9.85
2023-05-11T21:22:27.913Z,9.85
2023-05-11T21:24:02.067Z,9.50
2023-05-11T21:26:28.374Z,9.82
2023-05-11T21:27:27.938Z,9.82
2023-05-11T21:28:54.805Z,9.77
2023-05-11T21:31:21.906Z,9.95
2023-05-11T21:32:28.012Z,9.95
2023-05-11T21:33:48.373Z,10.60
2023-05-11T21:36:14.691Z,9.30
2023-05-11T21:37:27.943Z,9.30
2023-05-11T21:38:41.075Z,10.23
2023-05-11T21:41:07.475Z,10.80
2023-05-11T21:42:27.936Z,10.80
2023-05-11T21:43:33.835Z,9.20
2023-05-11T21:46:00.262Z,11.45
2023-05-11T21:47:28.049Z,11.45
2023-05-11T21:48:26.703Z,10.40
2023-05-11T21:50:54.495Z,10.77
2023-05-11T21:52:27.939Z,10.77
2023-05-11T21:53:22.249Z,9.73
2023-05-11T21:55:49.535Z,11.40
2023-05-11T21:57:27.933Z,11.40
2023-05-11T21:58:16.052Z,9.80
2023-05-11T22:00:42.455Z,8.57
2023-05-11T22:02:28.058Z,8.57
2023-05-11T22:03:09.200Z,10.52
2023-05-11T22:05:35.620Z,11.23
2023-05-11T22:07:27.927Z,11.23
2023-05-11T22:08:13.446Z,10.32
2023-05-11T22:10:40.994Z,12.27
2023-05-11T22:12:27.956Z,12.27
2023-05-11T22:13:07.377Z,12.05
2023-05-11T22:15:33.743Z,10.13
2023-05-11T22:17:27.994Z,10.13
2023-05-11T22:18:00.206Z,11.13
2023-05-11T22:20:26.613Z,12.15
2023-05-11T22:22:27.956Z,12.15
2023-05-11T22:22:55.102Z,10.73
2023-05-11T22:25:21.442Z,10.50
2023-05-11T22:27:27.943Z,10.50
2023-05-11T22:27:47.827Z,10.70
2023-05-11T22:30:14.398Z,11.05
2023-05-11T22:32:27.938Z,11.05
2023-05-11T22:32:40.925Z,10.15
2023-05-11T22:35:07.798Z,8.35
2023-05-11T22:37:27.942Z,8.35
2023-05-11T22:37:34.422Z,9.10
2023-05-11T22:40:01.104Z,9.20
2023-05-11T22:42:30.483Z,9.23
2023-05-11T22:42:30.622Z,9.23
2023-05-11T22:44:56.877Z,9.40
2023-05-11T22:47:23.574Z,8.32
2023-05-11T22:47:28.091Z,8.32
2023-05-11T22:49:49.978Z,8.73
2023-05-11T22:52:16.463Z,8.57
2023-05-11T22:52:28.028Z,8.57